Flight Track Log - Related Links

Times and Time Zones

All times are in EDT time to prevent confusion due to time zone crossing. See the SKW6345 flight status page for this flight to view local times or setup timezone preferences in your user account.

Time Position Orientation Groundspeed Altitude Reporting Facility
EDT Latitude Longitude Course Direction KTS MPH feet Rate Location/Type
Sun 07:46:21 PM 33.9500 -118.4833 338° Northwest 176 203 2,200  Level Southern California TRACON
Sun 07:47:10 PM 33.9611 -118.5347 285° West 189 217 3,300 1,622 Climbing Los Angeles Center
Sun 07:48:12 PM 33.9725 -118.5994 282° West 188 216 5,200 1,645 Climbing Los Angeles Center
Sun 07:49:14 PM 34.0175 -118.6256 334° Northwest 193 222 6,700 864 Climbing Los Angeles Center
Sun 07:50:17 PM 34.0839 -118.6342 354° North 227 261 7,000 144 Climbing Los Angeles Center
Sun 07:51:00 PM 34.2887 -118.5860 338° Northwest  Level FlightAware Approximate
Sun 07:51:19 PM 34.1497 -118.6450 352° North 249 287 7,000  Level Los Angeles Center
Sun 07:52:21 PM 34.2217 -118.6542 354° North 257 296 7,800 919 Climbing Los Angeles Center
Sun 07:53:23 PM 34.2892 -118.6617 355° North 249 287 8,900 1,113 Climbing Los Angeles Center
Sun 07:54:25 PM 34.3711 -118.6719 354° North 247 284 10,100 1,065 Climbing Los Angeles Center
Sun 07:55:27 PM 34.4400 -118.6803 354° North 247 284 11,100 919 Climbing Los Angeles Center
Sun 07:56:29 PM 34.5050 -118.7125 338° Northwest 249 287 12,000 435 Climbing Los Angeles Center
Sun 07:57:31 PM 34.5747 -118.7483 337° Northwest 273 314 12,000 96 Level Los Angeles Center
Sun 07:58:34 PM 34.6483 -118.7850 338° Northwest 286 329 12,200 384 Climbing Los Angeles Center
Sun 07:59:36 PM 34.7203 -118.8203 338° Northwest 283 326 12,800 774 Climbing Los Angeles Center
Sun 08:00:38 PM 34.8117 -118.8406 350° North 281 323 13,800 960 Climbing Los Angeles Center
Sun 08:01:41 PM 34.8847 -118.8508 353° North 270 311 14,800 919 Climbing Los Angeles Center
Sun 08:02:42 PM 34.9539 -118.8617 353° North 258 297 15,700 823 Climbing Los Angeles Center
Sun 08:03:45 PM 35.0228 -118.8739 352° North 253 291 16,500 816 Climbing Los Angeles Center
Sun 08:04:47 PM 35.0925 -118.8844 353° North 253 291 17,400 968 Climbing Los Angeles Center
Sun 08:05:49 PM 35.1750 -118.8981 352° North 253 291 18,500 919 Climbing Los Angeles Center
Sun 08:06:51 PM 35.2469 -118.9083 353° North 255 293 19,300 677 Climbing Los Angeles Center
Sun 08:07:53 PM 35.3183 -118.9208 352° North 258 297 19,900 339 Climbing Los Angeles Center
Sun 08:08:55 PM 35.3950 -118.9342 352° North 267 307 20,000 48 Climbing Los Angeles Center
Sun 08:09:57 PM 35.4775 -118.9469 353° North 286 329 20,000  Level Los Angeles Center
Sun 08:10:59 PM 35.5794 -118.9650 352° North 302 348 20,000  Level Los Angeles Center
Sun 08:12:02 PM 35.6667 -118.9806 352° North 312 359 20,000 -432 Level Los Angeles Center
Sun 08:13:04 PM 35.7544 -118.9950 352° North 313 360 19,100 -1,113 Descending Los Angeles Center
Sun 08:14:06 PM 35.8472 -119.0114 352° North 329 379 17,700 -1,500 Descending Los Angeles Center
Sun 08:15:08 PM 35.9372 -119.0314 350° North 330 380 16,000 -1,597 Descending Los Angeles Center
Sun 08:16:10 PM 36.0400 -119.0825 338° Northwest 332 382 14,400 -919 Descending Los Angeles Center
Sun 08:17:12 PM 36.1189 -119.1208 339° North 311 358 14,100 -194 Descending Los Angeles Center
Sun 08:18:14 PM 36.1956 -119.1572 339° North 302 348 14,000 -581 Descending Los Angeles Center
Sun 08:19:16 PM 36.2725 -119.1928 340° North 299 344 12,900 -768 Descending Los Angeles Center
Sun 08:20:19 PM 36.3528 -119.2325 338° Northwest 306 352 12,400 -480 Descending Los Angeles Center
Sun 08:21:21 PM 36.4286 -119.2697 338° Northwest 305 351 11,900 -1,016 Descending Los Angeles Center
Sun 08:22:23 PM 36.5181 -119.3206 335° Northwest 304 350 10,300 -1,694 Descending Los Angeles Center
Sun 08:23:25 PM 36.5781 -119.3744 324° Northwest 294 338 8,400 -1,790 Descending Los Angeles Center
Sun 08:24:27 PM 36.6217 -119.4475 307° West 276 318 6,600 -1,957 Descending Los Angeles Center
Sun 08:25:46 PM 36.6783 -119.5464 306° West 251 289 3,800 -1,929 Descending Oakland Center
Sun 08:26:47 PM 36.7164 -119.6122 306° West 230 265 2,100 -1,220 Descending Oakland Center
Sun 08:27:49 PM 36.7469 -119.6658 305° West 199 229 1,300 -829 Descending Oakland Center
Sun 08:28:50 PM 36.7703 -119.7058 306° West 143 165 400 -885 Descending Oakland Center

Login

Don't have an account? Register now (free) for customized features, flight alerts, and more!